createdAt,value
2024-02-07T00:02:13.605Z,94990.47
2024-02-07T00:04:42.001Z,94992.09
2024-02-07T00:07:10.197Z,94980.59
2024-02-07T00:09:38.184Z,94976.58
2024-02-07T00:12:06.303Z,94974.31
2024-02-07T00:14:34.281Z,94973.71
2024-02-07T00:17:02.357Z,94973.20
2024-02-07T00:19:30.397Z,94969.56
2024-02-07T00:21:58.366Z,94960.34
2024-02-07T00:24:26.378Z,94959.90
2024-02-07T00:26:54.319Z,94960.71
2024-02-07T00:29:22.235Z,94956.04
2024-02-07T00:31:50.222Z,94950.23
2024-02-07T00:34:18.270Z,94955.10
2024-02-07T00:36:46.255Z,94949.02
2024-02-07T00:39:14.181Z,94935.89
2024-02-07T00:41:42.245Z,94943.14
2024-02-07T00:44:10.266Z,94938.25
2024-02-07T00:46:39.400Z,94937.64
2024-02-07T00:49:13.578Z,94936.50
2024-02-07T00:54:55.385Z,94927.77
2024-02-07T00:57:24.326Z,94925.27
2024-02-07T00:59:53.124Z,94930.16
2024-02-07T01:02:21.969Z,94939.05
2024-02-07T01:04:51.544Z,94938.09
2024-02-07T01:07:19.810Z,94933.52
2024-02-07T01:09:48.052Z,94930.21
2024-02-07T01:12:16.041Z,94929.89
2024-02-07T01:14:44.034Z,94919.68
2024-02-07T01:17:12.145Z,94919.30
2024-02-07T01:19:40.223Z,94917.77
2024-02-07T01:22:08.175Z,94912.11
2024-02-07T01:24:36.138Z,94906.63
2024-02-07T01:27:05.572Z,94903.58
2024-02-07T01:29:35.196Z,94904.15
2024-02-07T01:32:03.394Z,94891.16
2024-02-07T01:34:31.543Z,94887.07
2024-02-07T01:36:59.973Z,94884.77
2024-02-07T01:39:28.060Z,94888.04
2024-02-07T01:41:58.722Z,94885.00
2024-02-07T01:44:29.074Z,94886.09
2024-02-07T01:47:14.523Z,94876.30
2024-02-07T01:49:52.400Z,94875.34
2024-02-07T01:52:24.819Z,94875.11
2024-02-07T01:54:54.591Z,94868.36
2024-02-07T01:57:23.134Z,94870.81
2024-02-07T01:59:51.354Z,94871.14
2024-02-07T02:02:20.456Z,94862.20
2024-02-07T02:04:48.499Z,94860.77
2024-02-07T02:07:17.624Z,94855.23
2024-02-07T02:09:46.857Z,94852.88
2024-02-07T02:12:15.260Z,94843.73
2024-02-07T02:14:44.906Z,94842.34
2024-02-07T02:17:12.913Z,94829.87
2024-02-07T02:19:46.752Z,94820.71
2024-02-07T02:22:34.575Z,94826.78
2024-02-07T02:25:24.054Z,94815.02
2024-02-07T02:28:08.714Z,94819.70
2024-02-07T02:30:48.346Z,94813.82
2024-02-07T02:33:19.722Z,94817.09
2024-02-07T02:35:48.580Z,94815.67
2024-02-07T02:38:17.185Z,94801.65
2024-02-07T02:40:45.322Z,94799.90
2024-02-07T02:43:13.517Z,94804.51
2024-02-07T02:45:42.345Z,94800.39
2024-02-07T02:48:13.677Z,94792.33
2024-02-07T02:50:42.205Z,94787.95
2024-02-07T02:53:10.214Z,94786.61
2024-02-07T02:55:39.284Z,94778.60
2024-02-07T02:58:07.422Z,94780.32
2024-02-07T03:00:35.854Z,94788.52
2024-02-07T03:03:04.125Z,94782.29
2024-02-07T03:05:41.005Z,94774.36
2024-02-07T03:08:12.416Z,94780.13
2024-02-07T03:10:40.528Z,94768.45
2024-02-07T03:23:19.280Z,94765.84
2024-02-07T03:25:46.227Z,94764.01
2024-02-07T03:28:15.818Z,94764.97
2024-02-07T03:30:42.607Z,94764.29
2024-02-07T03:33:09.297Z,94765.80
2024-02-07T03:35:36.475Z,94760.06
2024-02-07T03:38:03.508Z,94753.06
2024-02-07T03:40:30.546Z,94753.75
2024-02-07T03:42:59.213Z,94752.61
2024-02-07T03:45:26.223Z,94757.84
2024-02-07T03:47:53.186Z,94757.37
2024-02-07T03:50:25.789Z,94750.23
2024-02-07T03:52:52.595Z,94741.69
2024-02-07T03:55:19.788Z,94737.55
2024-02-07T03:57:48.579Z,94740.73
2024-02-07T04:00:17.594Z,94740.21
2024-02-07T04:02:48.903Z,94720.52
2024-02-07T04:05:19.830Z,94736.85
2024-02-07T04:07:47.016Z,94732.38
2024-02-07T04:10:14.453Z,94726.85
2024-02-07T04:12:41.435Z,94732.54
2024-02-07T04:15:27.220Z,94736.13
2024-02-07T04:18:19.784Z,94737.89
2024-02-07T04:21:10.194Z,94728.84
2024-02-07T04:23:56.690Z,94723.71
2024-02-07T04:26:43.126Z,94722.52
2024-02-07T04:29:28.587Z,94715.34
2024-02-07T04:32:13.717Z,94715.41
2024-02-07T04:35:01.429Z,94705.83
2024-02-07T04:37:47.237Z,94705.91
2024-02-07T04:40:32.615Z,94714.53
2024-02-07T04:43:18.008Z,94711.06
2024-02-07T04:46:03.237Z,94708.14
2024-02-07T04:48:48.812Z,94713.48
2024-02-07T04:51:34.101Z,94708.18
2024-02-07T04:54:19.379Z,94708.98
2024-02-07T04:57:04.677Z,94707.90
2024-02-07T04:59:49.792Z,94691.61
2024-02-07T05:02:35.090Z,94689.04
2024-02-07T05:05:20.319Z,94690.64
2024-02-07T05:08:05.770Z,94680.95
2024-02-07T05:10:50.960Z,94687.27
2024-02-07T05:13:36.374Z,94688.30
2024-02-07T05:16:03.325Z,94684.36
2024-02-07T05:18:30.190Z,94683.52
2024-02-07T05:20:56.980Z,94690.47
2024-02-07T05:23:23.832Z,94683.78
2024-02-07T05:25:50.735Z,94686.64
2024-02-07T05:28:18.269Z,94677.19
2024-02-07T05:30:45.008Z,94674.66
2024-02-07T05:33:11.769Z,94667.05
2024-02-07T05:35:38.698Z,94664.69
2024-02-07T05:38:05.768Z,94650.26
2024-02-07T05:40:32.458Z,94650.28
2024-02-07T05:42:59.805Z,94652.80
2024-02-07T05:45:26.781Z,94653.94
2024-02-07T05:47:53.504Z,94653.85
2024-02-07T05:50:20.155Z,94645.80
2024-02-07T05:52:47.204Z,94650.29
2024-02-07T05:55:14.257Z,94649.33
2024-02-07T05:57:41.254Z,94639.91
2024-02-07T06:00:09.771Z,94650.79
2024-02-07T06:02:39.136Z,94643.02
2024-02-07T06:05:06.001Z,94647.56
2024-02-07T06:07:36.894Z,94645.80
2024-02-07T06:10:03.934Z,94646.89
2024-02-07T06:12:31.910Z,94644.11
2024-02-07T06:15:01.623Z,94640.63
2024-02-07T06:17:29.492Z,94636.98
2024-02-07T06:19:57.133Z,94635.05
2024-02-07T06:22:23.974Z,94647.77
2024-02-07T06:24:51.312Z,94640.12
2024-02-07T06:27:18.091Z,94635.51
2024-02-07T06:29:45.428Z,94635.81
2024-02-07T06:32:12.177Z,94639.65
2024-02-07T06:34:38.913Z,94633.20
2024-02-07T06:37:05.754Z,94639.89
2024-02-07T06:39:33.527Z,94629.83
2024-02-07T06:42:00.200Z,94636.85
2024-02-07T06:44:26.841Z,94636.68
2024-02-07T06:46:53.574Z,94638.54
2024-02-07T06:49:20.428Z,94641.10
2024-02-07T06:51:47.730Z,94638.70
2024-02-07T06:54:14.581Z,94634.41
2024-02-07T06:56:41.483Z,94641.67
2024-02-07T06:59:11.759Z,94633.92
2024-02-07T07:01:40.880Z,94635.80
2024-02-07T07:04:07.694Z,94638.60
2024-02-07T07:06:34.543Z,94622.63
2024-02-07T07:09:01.427Z,94628.75
2024-02-07T07:11:28.922Z,94633.58
2024-02-07T07:13:59.210Z,94629.76
2024-02-07T07:16:28.137Z,94626.66
2024-02-07T07:18:57.107Z,94625.12
2024-02-07T07:21:23.805Z,94618.73
2024-02-07T07:23:50.926Z,94628.22
2024-02-07T07:26:17.787Z,94626.20
2024-02-07T07:28:44.611Z,94632.16
2024-02-07T07:31:11.415Z,94625.67
2024-02-07T07:33:38.163Z,94628.58
2024-02-07T07:36:05.274Z,94634.40
2024-02-07T07:38:32.021Z,94631.91
2024-02-07T07:40:59.003Z,94631.13
2024-02-07T07:43:25.916Z,94630.55
2024-02-07T07:45:53.156Z,94638.08
2024-02-07T07:48:23.846Z,94633.66
2024-02-07T07:50:52.201Z,94638.27
2024-02-07T07:53:19.043Z,94637.61
2024-02-07T07:55:45.885Z,94635.98
2024-02-07T07:58:13.409Z,94633.05
2024-02-07T08:00:40.205Z,94630.95
2024-02-07T08:03:07.469Z,94633.73
2024-02-07T08:05:35.725Z,94630.14
2024-02-07T08:08:04.318Z,94636.38
2024-02-07T08:10:31.076Z,94633.02
2024-02-07T08:12:57.779Z,94634.34
2024-02-07T08:15:24.462Z,94637.14
2024-02-07T08:17:51.482Z,94628.95
2024-02-07T08:20:22.662Z,94629.42
2024-02-07T08:22:49.523Z,94622.34
2024-02-07T08:25:16.535Z,94628.52
2024-02-07T08:27:43.292Z,94623.88
2024-02-07T08:30:10.475Z,94625.30
2024-02-07T08:32:37.254Z,94615.79
2024-02-07T08:35:04.615Z,94614.73
2024-02-07T08:37:31.508Z,94613.55
2024-02-07T08:39:58.363Z,94608.15
2024-02-07T08:42:25.175Z,94616.72
2024-02-07T08:44:51.918Z,94609.33
2024-02-07T08:47:18.647Z,94605.37
2024-02-07T08:49:45.482Z,94600.58
2024-02-07T08:52:12.285Z,94599.02
2024-02-07T08:54:39.988Z,94594.55
2024-02-07T08:57:06.694Z,94601.02
2024-02-07T08:59:33.512Z,94599.13
2024-02-07T09:02:00.295Z,94588.98
2024-02-07T09:04:27.243Z,94593.67
2024-02-07T09:06:53.945Z,94591.13
2024-02-07T09:09:20.639Z,94585.52
2024-02-07T09:11:47.343Z,94585.40
2024-02-07T09:14:13.993Z,94580.42
2024-02-07T09:16:40.912Z,94579.89
2024-02-07T09:19:07.799Z,94571.65
2024-02-07T09:21:35.992Z,94569.08
2024-02-07T09:24:04.874Z,94572.42
2024-02-07T09:26:31.992Z,94578.97
2024-02-07T09:28:59.724Z,94568.55
2024-02-07T09:31:26.683Z,94568.14
2024-02-07T09:33:53.852Z,94571.30
2024-02-07T09:36:20.875Z,94567.75
2024-02-07T09:38:47.655Z,94564.33
2024-02-07T09:41:18.479Z,94567.19
2024-02-07T09:43:47.401Z,94568.45
2024-02-07T09:46:18.825Z,94575.48
2024-02-07T09:48:45.991Z,94577.40
2024-02-07T09:51:15.616Z,94578.80
2024-02-07T09:53:43.530Z,94576.00
2024-02-07T09:56:11.380Z,94566.20
2024-02-07T09:58:39.041Z,94567.88
2024-02-07T10:01:09.770Z,94560.73
2024-02-07T10:03:40.594Z,94554.27
2024-02-07T10:06:09.216Z,94556.29
2024-02-07T10:08:36.674Z,94558.36
2024-02-07T10:11:08.367Z,94543.60
2024-02-07T10:13:35.322Z,94547.27
2024-02-07T10:16:06.555Z,94545.41
2024-02-07T10:18:34.199Z,94547.75
2024-02-07T10:21:02.535Z,94544.17
2024-02-07T10:23:29.431Z,94543.34
2024-02-07T10:25:57.113Z,94550.73
2024-02-07T10:28:25.515Z,94534.77
2024-02-07T10:31:02.922Z,94538.41
2024-02-07T10:33:44.712Z,94535.42
2024-02-07T10:36:13.232Z,94524.02
2024-02-07T10:38:41.137Z,94532.66
2024-02-07T10:41:08.261Z,94528.11
2024-02-07T10:43:38.324Z,94518.44
2024-02-07T10:46:11.045Z,94524.77
2024-02-07T10:48:39.478Z,94528.40
2024-02-07T10:51:06.660Z,94527.64
2024-02-07T10:53:34.254Z,94527.71
2024-02-07T10:56:05.354Z,94520.27
2024-02-07T10:58:33.221Z,94526.83
2024-02-07T11:01:00.771Z,94527.81
2024-02-07T11:03:31.513Z,94518.63
2024-02-07T11:05:59.194Z,94519.38
2024-02-07T11:08:28.491Z,94519.13
2024-02-07T11:10:57.384Z,94515.77
2024-02-07T11:13:24.757Z,94511.06
2024-02-07T11:15:51.540Z,94515.27
2024-02-07T11:18:18.564Z,94516.38
2024-02-07T11:20:47.553Z,94513.40
2024-02-07T11:23:25.249Z,94507.79
2024-02-07T11:25:53.630Z,94505.80
2024-02-07T11:28:20.716Z,94506.34
2024-02-07T11:30:49.814Z,94505.95
2024-02-07T11:33:16.674Z,94493.61
2024-02-07T11:35:43.649Z,94498.30
2024-02-07T11:38:11.866Z,94493.98
2024-02-07T11:40:40.249Z,94494.13
2024-02-07T11:43:11.142Z,94494.51
2024-02-07T11:45:38.521Z,94496.85
2024-02-07T11:48:24.607Z,94486.80
2024-02-07T11:50:53.497Z,94493.23
2024-02-07T11:53:27.151Z,94503.95
2024-02-07T11:55:54.067Z,94503.02
2024-02-07T11:58:23.420Z,94499.04
2024-02-07T12:00:50.682Z,94489.40
2024-02-07T12:03:18.581Z,94491.45
2024-02-07T12:05:46.510Z,94493.63
2024-02-07T12:08:16.397Z,94492.06
2024-02-07T12:10:43.305Z,94494.56
2024-02-07T12:13:11.623Z,94490.33
2024-02-07T12:15:38.783Z,94493.29
2024-02-07T12:18:05.789Z,94490.48
2024-02-07T12:20:32.804Z,94492.13
2024-02-07T12:23:01.043Z,94485.50
2024-02-07T12:25:28.748Z,94476.98
2024-02-07T12:27:55.792Z,94475.45
2024-02-07T12:30:22.559Z,94479.05
2024-02-07T12:32:49.855Z,94486.11
2024-02-07T12:35:18.826Z,94487.70
2024-02-07T12:37:47.819Z,94487.23
2024-02-07T12:40:15.209Z,94483.96
2024-02-07T12:42:42.287Z,94481.83
2024-02-07T12:45:13.967Z,94486.53
2024-02-07T12:47:41.764Z,94484.84
2024-02-07T12:50:09.158Z,94488.26
2024-02-07T12:52:35.998Z,94477.77
2024-02-07T12:55:02.791Z,94486.30
2024-02-07T12:57:31.072Z,94490.09
2024-02-07T13:00:09.739Z,94488.23
2024-02-07T13:02:37.099Z,94486.84
2024-02-07T13:05:04.225Z,94488.27
2024-02-07T13:07:31.151Z,94492.75
2024-02-07T13:09:58.063Z,94486.09
2024-02-07T13:12:30.317Z,94495.92
2024-02-07T13:14:59.109Z,94495.44
2024-02-07T13:17:25.949Z,94494.96
2024-02-07T13:19:52.757Z,94499.30
2024-02-07T13:22:19.591Z,94501.27
2024-02-07T13:24:46.551Z,94507.23
2024-02-07T13:27:13.282Z,94508.06
2024-02-07T13:29:41.892Z,94514.16
2024-02-07T13:32:13.726Z,94508.95
2024-02-07T13:34:45.851Z,94512.39
2024-02-07T13:37:12.911Z,94511.52
2024-02-07T13:39:39.678Z,94509.48
2024-02-07T13:42:06.836Z,94522.36
2024-02-07T13:44:33.797Z,94520.54
2024-02-07T13:47:01.913Z,94523.42
2024-02-07T13:49:28.911Z,94524.82
2024-02-07T13:51:56.032Z,94530.02
2024-02-07T13:54:22.808Z,94528.93
2024-02-07T13:56:49.592Z,94533.09
2024-02-07T13:59:16.980Z,94529.05
2024-02-07T14:01:44.273Z,94530.66
2024-02-07T14:04:11.225Z,94530.46
2024-02-07T14:06:38.378Z,94533.85
2024-02-07T14:09:05.693Z,94541.30
2024-02-07T14:11:32.630Z,94557.98
2024-02-07T14:13:59.742Z,94572.70
2024-02-07T14:16:26.748Z,94597.09
2024-02-07T14:18:53.527Z,94603.84
2024-02-07T14:21:20.352Z,94623.77
2024-02-07T14:23:47.479Z,94634.04
2024-02-07T14:26:14.290Z,94641.71
2024-02-07T14:28:41.663Z,94639.49
2024-02-07T14:31:08.434Z,94641.40
2024-02-07T14:33:37.279Z,94638.48
2024-02-07T14:36:05.140Z,94653.18
2024-02-07T14:38:37.898Z,94654.27
2024-02-07T14:41:06.316Z,94656.92
2024-02-07T14:43:33.553Z,94655.63
2024-02-07T14:46:00.416Z,94656.14
2024-02-07T14:48:32.119Z,94653.69
2024-02-07T14:50:59.174Z,94656.25
2024-02-07T14:53:26.615Z,94657.79
2024-02-07T14:55:59.167Z,94660.55
2024-02-07T14:58:29.192Z,94654.67
2024-02-07T15:00:57.480Z,94653.20
2024-02-07T15:03:24.693Z,94652.89
2024-02-07T15:05:52.311Z,94647.52
2024-02-07T15:08:19.110Z,94647.27
2024-02-07T15:10:46.020Z,94653.48
2024-02-07T15:13:13.368Z,94651.55
2024-02-07T15:15:42.904Z,94653.14
2024-02-07T15:18:12.084Z,94655.56
2024-02-07T15:20:41.056Z,94660.14
2024-02-07T15:23:07.871Z,94663.53
2024-02-07T15:25:35.304Z,94670.23
2024-02-07T15:28:02.803Z,94667.20
2024-02-07T15:30:33.077Z,94671.27
2024-02-07T15:32:59.977Z,94680.77
2024-02-07T15:35:27.072Z,94682.59
2024-02-07T15:37:54.181Z,94686.70
2024-02-07T15:40:22.667Z,94694.09
2024-02-07T15:42:49.521Z,94700.46
2024-02-07T15:45:16.374Z,94703.81
2024-02-07T15:47:43.250Z,94705.34
2024-02-07T15:50:10.341Z,94702.83
2024-02-07T15:52:37.611Z,94715.62
2024-02-07T15:55:04.987Z,94716.23
2024-02-07T15:57:33.702Z,94712.05
2024-02-07T16:00:00.469Z,94727.57
2024-02-07T16:02:28.634Z,94731.88
2024-02-07T16:04:55.692Z,94726.60
2024-02-07T16:07:23.001Z,94724.73
2024-02-07T16:09:49.889Z,94718.40
2024-02-07T16:12:17.203Z,94724.69
2024-02-07T16:14:44.015Z,94723.20
2024-02-07T16:17:13.707Z,94730.90
2024-02-07T16:19:40.611Z,94735.28
2024-02-07T16:22:07.414Z,94740.64
2024-02-07T16:24:35.347Z,94746.25
2024-02-07T16:27:02.421Z,94737.36
2024-02-07T16:29:29.300Z,94756.21
2024-02-07T16:31:56.194Z,94761.54
2024-02-07T16:34:23.272Z,94770.12
2024-02-07T16:36:51.423Z,94774.90
2024-02-07T16:39:18.232Z,94777.04
2024-02-07T16:41:46.017Z,94780.35
2024-02-07T16:44:13.005Z,94781.48
2024-02-07T16:46:40.025Z,94785.77
2024-02-07T16:49:07.349Z,94784.64
2024-02-07T16:51:34.385Z,94784.77
2024-02-07T16:54:01.294Z,94786.77
2024-02-07T16:56:30.634Z,94794.52
2024-02-07T16:58:58.112Z,94785.69
2024-02-07T17:01:26.354Z,94789.93
2024-02-07T17:03:55.467Z,94796.48
2024-02-07T17:06:23.276Z,94809.18
2024-02-07T17:08:50.839Z,94817.05
2024-02-07T17:11:18.846Z,94807.38
2024-02-07T17:13:46.077Z,94800.37
2024-02-07T17:16:13.281Z,94797.58
2024-02-07T17:18:40.048Z,94798.83
2024-02-07T17:21:07.775Z,94809.45
2024-02-07T17:23:34.683Z,94811.52
2024-02-07T17:26:01.790Z,94813.79
2024-02-07T17:28:29.081Z,94814.19
2024-02-07T17:30:56.269Z,94829.18
2024-02-07T17:33:23.323Z,94831.30
2024-02-07T17:35:51.650Z,94831.52
2024-02-07T17:38:18.401Z,94827.88
2024-02-07T17:40:45.338Z,94828.64
2024-02-07T17:43:12.954Z,94830.21
2024-02-07T17:45:39.713Z,94831.27
2024-02-07T17:48:06.986Z,94833.10
2024-02-07T17:50:36.538Z,94840.27
2024-02-07T17:53:03.977Z,94837.52
2024-02-07T17:55:31.041Z,94838.75
2024-02-07T17:57:59.224Z,94842.85
2024-02-07T18:00:27.359Z,94844.86
2024-02-07T18:02:54.188Z,94849.10
2024-02-07T18:05:26.825Z,94848.59
2024-02-07T18:07:55.467Z,94845.63
2024-02-07T18:10:23.329Z,94849.48
2024-02-07T18:12:50.477Z,94850.20
2024-02-07T18:15:17.626Z,94852.91
2024-02-07T18:17:44.585Z,94846.31
2024-02-07T18:20:12.320Z,94841.99
2024-02-07T18:22:39.375Z,94846.57
2024-02-07T18:25:06.788Z,94839.77
2024-02-07T18:27:35.003Z,94843.80
2024-02-07T18:30:16.547Z,94837.71
2024-02-07T18:32:45.713Z,94841.73
2024-02-07T18:35:12.577Z,94844.20
2024-02-07T18:37:39.490Z,94843.66
2024-02-07T18:40:07.883Z,94851.14
2024-02-07T18:42:36.050Z,94858.17
2024-02-07T18:45:06.880Z,94860.11
2024-02-07T18:47:33.682Z,94864.55
2024-02-07T18:50:00.602Z,94872.58
2024-02-07T18:52:28.052Z,94873.13
2024-02-07T18:54:54.972Z,94878.25
2024-02-07T18:57:22.906Z,94874.40
2024-02-07T18:59:54.419Z,94874.82
2024-02-07T19:02:23.172Z,94866.83
2024-02-07T19:04:50.362Z,94863.79
2024-02-07T19:07:17.310Z,94865.27
2024-02-07T19:09:44.432Z,94862.97
2024-02-07T19:12:11.318Z,94866.39
2024-02-07T19:14:39.161Z,94872.42
2024-02-07T19:17:06.070Z,94872.19
2024-02-07T19:19:34.006Z,94872.73
2024-02-07T19:22:00.868Z,94872.34
2024-02-07T19:24:30.133Z,94864.81
2024-02-07T19:26:57.866Z,94868.07
2024-02-07T19:29:36.119Z,94872.52
2024-02-07T19:32:03.435Z,94875.36
2024-02-07T19:34:30.621Z,94879.49
2024-02-07T19:36:57.512Z,94888.67
2024-02-07T19:39:26.636Z,94888.23
2024-02-07T19:41:54.433Z,94884.80
2024-02-07T19:44:21.188Z,94888.18
2024-02-07T19:46:52.538Z,94893.92
2024-02-07T19:49:19.554Z,94893.65
2024-02-07T19:51:47.055Z,94897.09
2024-02-07T19:54:14.149Z,94894.30
2024-02-07T19:56:42.181Z,94897.82
2024-02-07T19:59:11.156Z,94900.42
2024-02-07T20:01:39.727Z,94896.70
2024-02-07T20:04:07.451Z,94889.36
2024-02-07T20:06:34.848Z,94894.75
2024-02-07T20:09:02.394Z,94896.27
2024-02-07T20:11:30.168Z,94899.84
2024-02-07T20:13:57.067Z,94896.41
2024-02-07T20:16:24.927Z,94902.92
2024-02-07T20:18:52.118Z,94901.09
2024-02-07T20:21:18.920Z,94907.16
2024-02-07T20:23:45.799Z,94911.80
2024-02-07T20:26:12.613Z,94913.98
2024-02-07T20:28:41.344Z,94918.89
2024-02-07T20:31:08.533Z,94920.13
2024-02-07T20:33:36.334Z,94915.04
2024-02-07T20:36:03.420Z,94914.33
2024-02-07T20:38:30.255Z,94923.80
2024-02-07T20:40:57.101Z,94922.88
2024-02-07T20:43:23.803Z,94923.06
2024-02-07T20:45:51.394Z,94922.52
2024-02-07T20:48:18.676Z,94927.84
2024-02-07T20:50:45.569Z,94928.70
2024-02-07T20:53:13.311Z,94934.45
2024-02-07T20:55:42.882Z,94931.35
2024-02-07T20:58:09.728Z,94933.95
2024-02-07T21:00:41.046Z,94928.38
2024-02-07T21:03:09.568Z,94930.48
2024-02-07T21:05:38.233Z,94932.52
2024-02-07T21:08:05.904Z,94931.13
2024-02-07T21:10:32.997Z,94928.68
2024-02-07T21:12:59.806Z,94931.70
2024-02-07T21:15:26.572Z,94934.84
2024-02-07T21:17:53.468Z,94933.29
2024-02-07T21:20:20.361Z,94934.82
2024-02-07T21:22:47.111Z,94939.21
2024-02-07T21:25:15.208Z,94938.10
2024-02-07T21:27:41.851Z,94943.91
2024-02-07T21:30:10.778Z,94953.85
2024-02-07T21:32:37.702Z,94959.22
2024-02-07T21:35:06.084Z,94962.01
2024-02-07T21:37:32.805Z,94968.69
2024-02-07T21:40:00.533Z,94968.22
2024-02-07T21:42:27.398Z,94969.81
2024-02-07T21:44:54.000Z,94974.97
2024-02-07T21:47:20.671Z,94977.48
2024-02-07T21:49:47.538Z,94987.00
2024-02-07T21:52:14.457Z,94990.40
2024-02-07T21:54:41.793Z,94980.08
2024-02-07T21:57:08.567Z,94969.84
2024-02-07T21:59:37.020Z,94972.23
2024-02-07T22:02:04.008Z,94970.88
2024-02-07T22:04:31.020Z,94970.54
2024-02-07T22:06:57.758Z,94974.83
2024-02-07T22:09:24.507Z,94979.73
2024-02-07T22:11:51.213Z,94981.94
2024-02-07T22:14:19.658Z,94981.92
2024-02-07T22:16:46.444Z,94983.25
2024-02-07T22:19:13.522Z,94983.19
2024-02-07T22:21:40.224Z,94986.44
2024-02-07T22:24:07.226Z,94985.08
2024-02-07T22:26:34.016Z,94985.99
2024-02-07T22:29:01.208Z,94987.09
2024-02-07T22:31:31.831Z,94988.17
2024-02-07T22:33:58.939Z,94986.36
2024-02-07T22:36:25.659Z,94989.02
2024-02-07T22:38:54.182Z,94992.30
2024-02-07T22:41:20.819Z,94998.73
2024-02-07T22:43:47.526Z,95000.77
2024-02-07T22:46:14.174Z,95002.70
2024-02-07T22:48:40.888Z,95002.39
2024-02-07T22:51:07.513Z,94999.48
2024-02-07T22:53:34.916Z,95003.27
2024-02-07T22:56:01.972Z,95008.20
2024-02-07T22:58:28.628Z,95007.38
2024-02-07T23:00:55.818Z,95011.48
2024-02-07T23:03:22.724Z,95011.75
2024-02-07T23:05:49.764Z,95007.94
2024-02-07T23:08:16.408Z,95010.95
2024-02-07T23:10:45.473Z,95010.91
2024-02-07T23:13:12.497Z,95013.90
2024-02-07T23:15:39.650Z,95014.45
2024-02-07T23:18:07.619Z,95008.91
2024-02-07T23:20:34.573Z,95005.51
2024-02-07T23:23:01.587Z,95011.81
2024-02-07T23:25:28.468Z,95012.09
2024-02-07T23:27:55.119Z,95018.41
2024-02-07T23:30:21.740Z,95017.68
2024-02-07T23:32:48.496Z,95023.37
2024-02-07T23:35:15.556Z,95023.84
2024-02-07T23:37:42.241Z,95023.69
2024-02-07T23:40:09.199Z,95025.48
2024-02-07T23:42:35.935Z,95029.39
2024-02-07T23:45:02.796Z,95030.09
2024-02-07T23:47:29.656Z,95029.99
2024-02-07T23:49:56.346Z,95029.63
2024-02-07T23:52:22.953Z,95031.74
2024-02-07T23:54:50.584Z,95026.61
2024-02-07T23:57:17.230Z,95020.42
2024-02-07T23:59:44.054Z,95023.55
